Time;durP1;ratioP1;P1;durP2;ratioP2;P2;SDS_P1;SDS_P2;PMS_P1;PMS_P2;Temp;Humidity;BMP_temperature;BMP_pressure;BME280_temperature;BME280_humidity;BME280_pressure;Samples;Min_cycle;Max_cycle;Signal;HPM_P1;HPM_P2
2021/06/06 00:00:47;;;;;;;8.20;4.10;;;25.00;51.50;;;;;;5052283;28;20027;-69
2021/06/06 00:03:26;;;;;;;9.07;4.18;;;25.00;51.60;;;;;;5052006;28;20071;-68
2021/06/06 00:06:08;;;;;;;7.88;3.95;;;25.00;51.00;;;;;;5052564;28;20044;-68
2021/06/06 00:08:36;;;;;;;6.45;4.25;;;25.00;50.60;;;;;;5052180;28;20041;-69
2021/06/06 00:11:11;;;;;;;9.60;4.40;;;24.90;50.90;;;;;;5051979;28;20429;-69
2021/06/06 00:13:39;;;;;;;12.60;4.65;;;24.90;50.40;;;;;;5052102;28;20064;-68
2021/06/06 00:16:08;;;;;;;6.95;3.88;;;24.90;50.70;;;;;;5051350;28;20037;-69
2021/06/06 00:18:35;;;;;;;7.53;4.15;;;24.90;50.60;;;;;;5052303;28;20075;-69
2021/06/06 00:21:01;;;;;;;8.15;4.72;;;25.00;50.70;;;;;;5051859;28;20039;-68
2021/06/06 00:23:31;;;;;;;7.13;4.13;;;25.10;50.40;;;;;;5052345;28;20384;-69
2021/06/06 00:25:58;;;;;;;9.80;5.10;;;25.00;50.00;;;;;;5055200;28;20029;-69
2021/06/06 00:28:25;;;;;;;9.52;4.82;;;25.00;50.30;;;;;;5055769;28;20112;-68
2021/06/06 00:30:53;;;;;;;8.75;5.25;;;24.90;50.70;;;;;;5037427;28;20378;-69
2021/06/06 00:33:21;;;;;;;9.88;4.75;;;24.80;49.50;;;;;;5055595;28;20029;-69
2021/06/06 00:35:47;;;;;;;9.18;5.20;;;24.80;50.00;;;;;;5055369;28;20032;-69
2021/06/06 00:38:15;;;;;;;9.63;5.15;;;24.70;50.60;;;;;;5055209;28;20478;-68
2021/06/06 00:40:41;;;;;;;7.55;5.05;;;24.60;51.00;;;;;;5055570;28;20032;-69
2021/06/06 00:43:09;;;;;;;10.00;5.40;;;24.60;51.30;;;;;;5055553;28;20450;-70
2021/06/06 00:45:39;;;;;;;9.45;4.88;;;24.60;51.20;;;;;;5055561;28;20029;-68
2021/06/06 00:48:09;;;;;;;9.13;4.78;;;24.60;51.80;;;;;;5055309;28;20104;-68
2021/06/06 00:50:39;;;;;;;9.40;5.00;;;24.50;52.20;;;;;;5054926;28;20053;-69
2021/06/06 00:53:07;;;;;;;11.68;5.55;;;24.40;52.80;;;;;;5054899;28;20025;-68
2021/06/06 00:55:36;;;;;;;11.15;5.22;;;24.30;53.30;;;;;;5055263;28;20063;-69
2021/06/06 00:58:08;;;;;;;10.20;5.00;;;24.20;53.50;;;;;;5054665;28;20032;-69
2021/06/06 01:00:40;;;;;;;9.63;5.40;;;24.20;54.20;;;;;;5054931;28;20065;-69
2021/06/06 01:03:07;;;;;;;7.25;4.82;;;24.10;54.80;;;;;;5054953;28;20017;-70
2021/06/06 01:05:35;;;;;;;10.77;5.65;;;24.00;55.30;;;;;;5054737;28;20052;-69
2021/06/06 01:08:04;;;;;;;7.03;5.30;;;24.00;55.50;;;;;;5054887;28;20482;-68
2021/06/06 01:10:30;;;;;;;10.65;5.50;;;24.00;55.70;;;;;;5054662;28;20028;-69
2021/06/06 01:13:19;;;;;;;8.98;5.72;;;24.00;55.50;;;;;;5054783;28;20025;-68
2021/06/06 01:15:52;;;;;;;8.68;5.30;;;24.10;55.90;;;;;;5054697;28;20437;-69
2021/06/06 01:18:29;;;;;;;10.15;5.75;;;24.10;55.90;;;;;;5055448;28;20021;-67
2021/06/06 01:21:14;;;;;;;9.23;5.40;;;24.00;56.00;;;;;;5054570;28;20116;-68
2021/06/06 01:24:21;;;;;;;7.40;5.57;;;24.00;56.10;;;;;;5054902;28;20048;-69
2021/06/06 01:26:54;;;;;;;8.73;5.20;;;24.10;56.00;;;;;;5044879;28;20037;-69
2021/06/06 01:29:42;;;;;;;9.45;5.88;;;24.10;56.00;;;;;;5054368;28;20551;-69
2021/06/06 01:32:20;;;;;;;11.75;5.78;;;24.10;55.90;;;;;;5054527;28;20545;-69
2021/06/06 01:34:54;;;;;;;10.70;5.78;;;24.00;56.20;;;;;;5054263;28;20063;-69
2021/06/06 01:37:22;;;;;;;9.70;6.10;;;24.10;56.20;;;;;;5054367;28;20041;-69
2021/06/06 01:40:04;;;;;;;9.90;5.75;;;24.20;56.00;;;;;;5054393;28;20028;-68
2021/06/06 01:42:38;;;;;;;8.18;5.72;;;24.20;56.20;;;;;;5054195;28;20388;-68
2021/06/06 01:45:11;;;;;;;11.07;5.18;;;24.00;56.00;;;;;;5054055;28;20021;-68
2021/06/06 01:47:38;;;;;;;8.07;5.70;;;24.20;56.00;;;;;;5053955;28;20082;-68
2021/06/06 01:50:13;;;;;;;8.80;5.75;;;24.20;55.80;;;;;;5053977;28;20033;-67
2021/06/06 01:52:42;;;;;;;8.02;5.90;;;24.30;55.60;;;;;;5053733;28;20469;-68
2021/06/06 01:55:12;;;;;;;10.77;5.70;;;24.30;55.40;;;;;;5054010;28;20064;-68
2021/06/06 01:57:40;;;;;;;9.55;6.00;;;24.40;55.40;;;;;;5053616;28;20017;-68
2021/06/06 02:00:11;;;;;;;9.52;5.60;;;24.40;55.30;;;;;;5053723;28;20056;-68
2021/06/06 02:02:37;;;;;;;9.60;5.88;;;24.40;55.30;;;;;;5053746;28;20021;-68
2021/06/06 02:05:14;;;;;;;11.82;7.05;;;24.10;55.20;;;;;;5053773;28;20032;-68
2021/06/06 02:07:42;;;;;;;12.30;5.93;;;24.20;55.60;;;;;;5053474;28;20022;-68
2021/06/06 02:10:29;;;;;;;9.63;5.85;;;24.10;55.50;;;;;;5053556;28;20025;-69
2021/06/06 02:13:07;;;;;;;8.52;5.80;;;24.10;55.30;;;;;;5053846;28;20025;-68
2021/06/06 02:15:35;;;;;;;10.75;6.97;;;24.00;55.20;;;;;;5053464;28;20021;-68
2021/06/06 02:18:06;;;;;;;10.93;6.80;;;24.00;55.40;;;;;;5053405;28;20065;-68
2021/06/06 02:20:42;;;;;;;12.02;6.63;;;24.10;55.50;;;;;;5053263;28;20054;-68
2021/06/06 02:23:09;;;;;;;9.65;6.00;;;24.10;55.40;;;;;;5053205;28;20116;-67
2021/06/06 02:25:37;;;;;;;8.73;6.45;;;24.20;55.40;;;;;;5053558;28;20478;-68
2021/06/06 02:28:29;;;;;;;11.30;6.13;;;24.20;55.90;;;;;;5053053;28;20036;-68
2021/06/06 02:31:31;;;;;;;9.85;6.07;;;24.10;54.90;;;;;;5053189;28;20059;-69
2021/06/06 02:34:11;;;;;;;10.73;6.22;;;24.00;55.40;;;;;;5053046;28;20052;-69
2021/06/06 02:36:40;;;;;;;11.57;6.15;;;24.00;55.20;;;;;;5053279;28;20112;-68
2021/06/06 02:39:13;;;;;;;9.93;6.50;;;23.90;55.20;;;;;;5053270;28;20048;-68
2021/06/06 02:41:52;;;;;;;14.43;6.20;;;23.90;55.40;;;;;;5053036;28;20029;-68
2021/06/06 02:44:23;;;;;;;9.50;6.07;;;24.00;55.40;;;;;;5052934;28;20023;-69
2021/06/06 02:46:50;;;;;;;11.77;6.50;;;23.90;55.20;;;;;;5034700;28;20044;-68
2021/06/06 02:49:26;;;;;;;10.48;6.43;;;24.00;55.20;;;;;;5052874;28;20493;-69
2021/06/06 02:51:56;;;;;;;10.43;6.50;;;23.80;55.50;;;;;;5052760;28;20033;-68
2021/06/06 02:54:46;;;;;;;10.70;6.03;;;23.80;55.60;;;;;;5052815;28;20112;-68
2021/06/06 02:57:15;;;;;;;11.82;6.57;;;23.70;55.50;;;;;;5052052;28;20091;-68
2021/06/06 02:59:46;;;;;;;10.63;5.97;;;23.50;55.60;;;;;;5052777;28;20021;-68
2021/06/06 03:02:16;;;;;;;9.48;6.40;;;23.60;56.00;;;;;;5052444;28;20390;-68
2021/06/06 03:04:46;;;;;;;10.13;6.03;;;23.70;55.70;;;;;;5052648;28;20021;-68
2021/06/06 03:07:24;;;;;;;10.93;6.47;;;23.60;55.60;;;;;;5052478;28;20029;-68
2021/06/06 03:09:51;;;;;;;9.77;6.70;;;23.70;55.50;;;;;;5052757;28;20128;-68
2021/06/06 03:12:19;;;;;;;13.35;6.03;;;23.70;55.20;;;;;;5052762;28;20028;-68
2021/06/06 03:14:47;;;;;;;12.98;6.28;;;23.70;55.40;;;;;;5052790;28;20032;-68
2021/06/06 03:17:20;;;;;;;10.43;6.38;;;23.50;55.50;;;;;;5052458;28;20017;-68
2021/06/06 03:19:50;;;;;;;9.65;6.50;;;23.40;56.00;;;;;;5052636;28;20056;-69
2021/06/06 03:22:19;;;;;;;15.30;6.68;;;23.40;56.00;;;;;;5052413;28;20052;-67
2021/06/06 03:24:52;;;;;;;11.40;6.45;;;23.40;56.20;;;;;;5052570;28;20021;-68
2021/06/06 03:27:23;;;;;;;10.52;5.95;;;23.40;56.30;;;;;;5052582;28;20052;-68
2021/06/06 03:30:08;;;;;;;11.30;6.28;;;23.40;56.50;;;;;;5052434;28;20029;-68
2021/06/06 03:32:36;;;;;;;10.63;6.70;;;23.40;56.70;;;;;;5052689;28;20025;-68
2021/06/06 03:35:04;;;;;;;9.55;6.40;;;23.30;56.60;;;;;;5052638;28;20083;-68
2021/06/06 03:37:29;;;;;;;9.55;5.95;;;23.30;56.90;;;;;;5052399;28;20533;-68
2021/06/06 03:39:56;;;;;;;12.23;6.53;;;23.30;56.50;;;;;;5052830;28;20108;-68
2021/06/06 03:42:23;;;;;;;13.43;6.80;;;23.30;56.60;;;;;;5052675;28;20047;-69
2021/06/06 03:44:49;;;;;;;11.98;6.18;;;23.30;56.90;;;;;;5052447;28;20025;-68
2021/06/06 03:47:15;;;;;;;10.40;5.68;;;23.30;56.80;;;;;;5052515;28;20031;-68
2021/06/06 03:49:41;;;;;;;9.70;5.65;;;23.20;56.80;;;;;;5052317;28;20440;-68
2021/06/06 03:52:07;;;;;;;11.65;6.10;;;23.20;57.00;;;;;;5052344;28;20028;-68
2021/06/06 03:54:33;;;;;;;9.27;6.40;;;23.20;57.00;;;;;;5052480;28;20032;-68
2021/06/06 03:56:59;;;;;;;13.32;5.95;;;23.30;56.90;;;;;;5052227;28;20458;-68
2021/06/06 03:59:24;;;;;;;9.60;6.28;;;23.10;57.00;;;;;;5055702;28;20102;-68
2021/06/06 04:01:51;;;;;;;9.32;5.95;;;23.10;57.10;;;;;;5056091;28;20055;-68
2021/06/06 04:04:17;;;;;;;9.68;6.25;;;23.10;57.20;;;;;;5056077;28;20086;-68
2021/06/06 04:06:43;;;;;;;8.65;6.18;;;23.10;57.10;;;;;;5056139;28;20021;-67
2021/06/06 04:09:09;;;;;;;10.70;6.38;;;23.20;57.10;;;;;;5056024;28;20374;-69
2021/06/06 04:11:37;;;;;;;9.27;6.07;;;23.10;57.10;;;;;;5055970;28;20031;-68
2021/06/06 04:14:03;;;;;;;13.23;6.68;;;23.20;56.90;;;;;;5055879;28;20100;-68
2021/06/06 04:16:29;;;;;;;13.38;6.18;;;23.20;57.00;;;;;;5055936;28;20099;-69
2021/06/06 04:18:55;;;;;;;12.82;7.53;;;23.20;57.10;;;;;;5055895;28;20035;-68
2021/06/06 04:21:24;;;;;;;10.25;6.88;;;23.20;57.10;;;;;;5055379;28;20049;-68
2021/06/06 04:23:50;;;;;;;11.30;7.00;;;23.10;57.40;;;;;;5037978;28;20354;-68
2021/06/06 04:26:17;;;;;;;9.55;6.40;;;22.90;57.60;;;;;;5055670;28;20031;-68
2021/06/06 04:28:43;;;;;;;9.57;6.45;;;22.90;57.40;;;;;;5059795;28;20073;-69
2021/06/06 04:31:09;;;;;;;10.20;6.35;;;23.00;57.50;;;;;;5061419;28;20024;-68
2021/06/06 04:33:35;;;;;;;12.93;6.50;;;23.20;57.50;;;;;;5037695;28;20029;-69
2021/06/06 04:36:01;;;;;;;11.93;6.45;;;23.30;57.00;;;;;;5055457;28;20134;-68
2021/06/06 04:38:28;;;;;;;11.32;7.13;;;23.40;56.90;;;;;;5055309;28;20063;-68
2021/06/06 04:40:57;;;;;;;9.93;6.20;;;23.20;56.90;;;;;;5037031;28;20421;-67
2021/06/06 04:43:24;;;;;;;14.77;6.15;;;23.20;57.00;;;;;;5054904;28;20025;-68
2021/06/06 04:45:50;;;;;;;15.68;6.13;;;23.30;56.90;;;;;;5055070;28;20017;-67
2021/06/06 04:48:21;;;;;;;10.18;6.25;;;23.30;56.80;;;;;;5055042;28;20029;-67
2021/06/06 04:50:49;;;;;;;9.00;5.70;;;23.30;56.90;;;;;;5055029;28;20432;-67
2021/06/06 04:53:15;;;;;;;10.98;6.13;;;23.20;57.10;;;;;;5054833;28;20017;-68
2021/06/06 04:55:42;;;;;;;11.18;6.25;;;23.00;57.40;;;;;;5055194;28;20469;-68
2021/06/06 04:58:12;;;;;;;10.73;6.32;;;23.00;57.70;;;;;;5055031;28;20474;-69
2021/06/06 05:00:41;;;;;;;11.50;5.70;;;23.00;57.90;;;;;;5055067;28;20079;-68
2021/06/06 05:03:07;;;;;;;12.65;6.50;;;22.90;58.20;;;;;;5054950;28;20029;-69
2021/06/06 05:05:34;;;;;;;12.02;6.13;;;23.20;57.80;;;;;;5054709;28;20048;-69
2021/06/06 05:08:02;;;;;;;9.77;5.88;;;23.40;57.60;;;;;;5054572;28;20040;-67
2021/06/06 05:10:30;;;;;;;12.68;5.95;;;23.40;57.50;;;;;;5054299;28;20038;-68
2021/06/06 05:12:56;;;;;;;10.25;6.90;;;23.50;57.30;;;;;;5037054;28;20116;-67
2021/06/06 05:15:23;;;;;;;11.40;6.93;;;23.60;57.40;;;;;;5054698;28;20048;-68
2021/06/06 05:17:49;;;;;;;12.23;6.70;;;23.40;57.40;;;;;;5054212;28;20025;-67
2021/06/06 05:20:17;;;;;;;12.27;6.53;;;23.60;57.60;;;;;;5054228;28;20077;-68
2021/06/06 05:22:43;;;;;;;8.77;6.28;;;23.70;57.40;;;;;;5054149;28;20055;-68
2021/06/06 05:25:09;;;;;;;12.30;5.82;;;23.80;57.10;;;;;;5054415;28;20111;-68
2021/06/06 05:27:35;;;;;;;10.05;6.40;;;23.80;57.20;;;;;;5054424;28;20041;-68
2021/06/06 05:30:08;;;;;;;11.20;7.03;;;23.90;57.30;;;;;;5054361;28;20087;-68
2021/06/06 05:32:34;;;;;;;10.18;6.65;;;24.10;57.10;;;;;;5036283;28;20019;-68
2021/06/06 05:35:00;;;;;;;11.73;6.80;;;24.10;56.70;;;;;;5054114;28;20029;-68
2021/06/06 05:37:26;;;;;;;11.90;6.20;;;24.20;56.80;;;;;;5053974;28;20052;-68
2021/06/06 05:39:53;;;;;;;11.80;6.75;;;24.30;56.70;;;;;;5036148;28;20028;-68
2021/06/06 05:42:19;;;;;;;10.05;6.07;;;24.30;56.60;;;;;;5054055;28;20082;-67
2021/06/06 05:44:45;;;;;;;10.57;6.68;;;24.30;56.90;;;;;;5053782;28;20075;-68
2021/06/06 05:47:11;;;;;;;12.43;6.95;;;24.30;57.00;;;;;;5053773;28;20108;-68
2021/06/06 05:49:37;;;;;;;11.68;6.43;;;24.30;56.80;;;;;;5053584;28;20033;-67
2021/06/06 05:52:04;;;;;;;13.45;7.93;;;24.40;56.70;;;;;;5054365;28;20035;-69
2021/06/06 05:54:30;;;;;;;14.27;7.10;;;24.50;56.60;;;;;;5053907;28;20036;-69
2021/06/06 05:56:56;;;;;;;9.65;6.50;;;24.40;56.70;;;;;;5053812;28;20025;-68
2021/06/06 05:59:21;;;;;;;11.88;7.30;;;24.50;56.50;;;;;;5053545;28;20032;-68
2021/06/06 06:01:47;;;;;;;12.15;7.35;;;24.50;56.30;;;;;;5053792;28;20025;-69
2021/06/06 06:04:13;;;;;;;13.82;7.30;;;24.70;56.30;;;;;;5053602;28;20025;-70
2021/06/06 06:06:40;;;;;;;11.07;7.20;;;24.70;56.10;;;;;;5053502;28;20090;-68
2021/06/06 06:09:06;;;;;;;12.43;7.05;;;24.70;56.30;;;;;;5053256;28;20049;-69
2021/06/06 06:11:32;;;;;;;11.73;7.20;;;24.60;56.10;;;;;;5053250;28;20096;-68
2021/06/06 06:13:58;;;;;;;13.10;7.28;;;24.50;56.40;;;;;;5035549;28;20056;-69
2021/06/06 06:16:29;;;;;;;11.60;7.35;;;24.70;56.10;;;;;;5053145;28;20017;-69
2021/06/06 06:18:55;;;;;;;10.55;6.80;;;24.70;56.00;;;;;;5053535;28;20025;-68
2021/06/06 06:21:23;;;;;;;12.77;6.93;;;24.60;55.90;;;;;;5034150;28;20436;-68
2021/06/06 06:23:48;;;;;;;10.20;6.10;;;24.60;55.90;;;;;;5035193;28;20474;-68
2021/06/06 06:26:16;;;;;;;10.23;6.47;;;24.70;55.40;;;;;;5052958;28;20032;-67
2021/06/06 06:28:46;;;;;;;11.63;6.10;;;25.00;55.30;;;;;;5053250;28;20029;-68
2021/06/06 06:31:16;;;;;;;14.85;7.45;;;25.10;54.80;;;;;;5053060;28;20040;-68
2021/06/06 06:33:43;;;;;;;13.68;6.93;;;25.30;54.30;;;;;;5052767;28;20090;-67
2021/06/06 06:36:11;;;;;;;10.43;5.80;;;25.30;54.20;;;;;;5052512;28;20025;-68
2021/06/06 06:38:37;;;;;;;10.50;6.28;;;25.40;54.10;;;;;;5052744;28;20418;-69
2021/06/06 06:41:04;;;;;;;10.95;6.10;;;25.80;53.40;;;;;;5052708;28;20021;-68
2021/06/06 06:43:30;;;;;;;10.35;5.53;;;25.90;52.90;;;;;;5052835;28;20068;-68
2021/06/06 06:45:56;;;;;;;13.73;6.40;;;25.90;52.60;;;;;;5052476;28;20029;-68
2021/06/06 06:48:26;;;;;;;10.57;5.90;;;26.00;52.30;;;;;;5052759;28;20417;-68
2021/06/06 06:50:53;;;;;;;10.07;5.65;;;26.00;52.10;;;;;;5052777;28;20029;-68
2021/06/06 06:53:20;;;;;;;11.82;5.93;;;26.00;51.60;;;;;;5052353;28;20045;-69
2021/06/06 06:55:47;;;;;;;13.40;6.07;;;26.00;52.20;;;;;;5052436;28;20043;-68
2021/06/06 06:58:13;;;;;;;11.43;6.30;;;26.00;51.70;;;;;;5052714;28;20477;-68
2021/06/06 07:00:45;;;;;;;10.70;5.95;;;26.00;51.90;;;;;;5054909;28;20024;-69
2021/06/06 07:03:14;;;;;;;8.82;5.70;;;26.00;51.50;;;;;;5034870;28;20033;-69
2021/06/06 07:05:42;;;;;;;11.07;5.57;;;25.90;52.20;;;;;;5052683;28;20417;-68
2021/06/06 07:08:10;;;;;;;13.40;5.38;;;25.80;52.10;;;;;;5052497;28;20032;-69
2021/06/06 07:10:41;;;;;;;9.55;5.18;;;25.90;52.20;;;;;;5057093;28;20059;-68
2021/06/06 07:13:08;;;;;;;12.60;5.45;;;25.90;51.60;;;;;;5072714;28;20091;-67
2021/06/06 07:15:35;;;;;;;6.97;4.78;;;26.00;51.30;;;;;;5072677;28;20033;-67
2021/06/06 07:18:02;;;;;;;11.82;5.90;;;25.90;50.80;;;;;;5072544;28;20457;-69
2021/06/06 07:20:34;;;;;;;13.07;6.13;;;25.90;50.70;;;;;;5069013;28;20025;-68
2021/06/06 07:23:03;;;;;;;17.67;6.50;;;25.90;50.90;;;;;;5052254;28;20469;-70
2021/06/06 07:25:29;;;;;;;9.35;5.57;;;25.90;51.40;;;;;;5070438;28;20055;-71
2021/06/06 07:27:56;;;;;;;11.98;6.57;;;26.10;50.60;;;;;;5072590;28;20104;-70
2021/06/06 07:30:28;;;;;;;13.38;6.00;;;26.10;50.40;;;;;;5072599;28;20107;-70
2021/06/06 07:32:55;;;;;;;10.98;5.38;;;26.10;50.40;;;;;;5073765;28;20040;-70
2021/06/06 07:35:24;;;;;;;18.38;5.93;;;26.10;49.90;;;;;;5076230;28;20067;-71
2021/06/06 07:37:52;;;;;;;12.88;6.05;;;26.20;50.20;;;;;;5076740;28;20408;-71
2021/06/06 07:40:19;;;;;;;13.15;6.45;;;26.20;50.00;;;;;;5058445;28;20021;-71
2021/06/06 07:42:45;;;;;;;14.70;6.72;;;26.10;50.20;;;;;;5058255;28;20052;-72
2021/06/06 07:45:13;;;;;;;13.20;6.40;;;26.10;51.00;;;;;;5076458;28;20054;-70
2021/06/06 07:47:42;;;;;;;14.60;6.63;;;26.00;50.60;;;;;;5058234;28;20029;-71
2021/06/06 07:50:11;;;;;;;9.95;6.45;;;26.10;50.80;;;;;;5077050;28;20040;-72
2021/06/06 07:52:38;;;;;;;10.07;6.10;;;26.10;50.60;;;;;;5076254;28;20481;-72
2021/06/06 07:55:07;;;;;;;14.85;6.40;;;26.10;51.00;;;;;;5076062;28;20021;-71
2021/06/06 07:57:33;;;;;;;12.15;5.85;;;26.10;50.60;;;;;;5075966;28;20115;-74
2021/06/06 07:59:59;;;;;;;12.38;6.57;;;26.30;50.30;;;;;;5076050;28;20021;-74
2021/06/06 08:02:26;;;;;;;12.23;5.82;;;26.40;49.70;;;;;;5076228;28;20067;-72
2021/06/06 08:04:53;;;;;;;8.48;4.45;;;26.50;49.30;;;;;;5076130;28;20469;-73
2021/06/06 08:07:18;;;;;;;9.80;5.10;;;26.50;48.40;;;;;;5075980;28;20500;-74
2021/06/06 08:09:45;;;;;;;12.98;5.88;;;26.60;48.80;;;;;;5069262;28;20041;-73
2021/06/06 08:12:11;;;;;;;10.07;5.05;;;26.70;47.70;;;;;;5046682;28;20044;-74
2021/06/06 08:14:37;;;;;;;12.98;4.95;;;26.70;47.00;;;;;;5055721;28;20029;-73
2021/06/06 08:17:04;;;;;;;10.13;5.18;;;26.70;47.30;;;;;;5055813;28;20021;-74
2021/06/06 08:19:30;;;;;;;16.00;5.50;;;26.60;47.30;;;;;;5039049;28;20028;-74
2021/06/06 08:21:57;;;;;;;11.13;5.18;;;26.70;47.20;;;;;;5064586;28;20116;-73
2021/06/06 08:24:23;;;;;;;8.52;4.40;;;26.70;46.50;;;;;;5055600;28;20055;-75
2021/06/06 08:26:51;;;;;;;8.60;3.97;;;26.70;46.20;;;;;;5037605;28;20029;-74
2021/06/06 08:29:19;;;;;;;11.32;4.70;;;26.90;45.70;;;;;;5060971;28;20052;-75
2021/06/06 08:31:49;;;;;;;11.05;4.53;;;26.80;45.10;;;;;;5047709;28;20108;-78
2021/06/06 08:34:15;;;;;;;11.57;4.68;;;26.80;45.00;;;;;;5064354;28;20211;-78
2021/06/06 08:36:46;;;;;;;10.43;4.65;;;26.90;44.90;;;;;;5045422;28;20029;-79
2021/06/06 08:39:18;;;;;;;11.15;4.85;;;26.80;44.00;;;;;;5069249;28;20044;-79
2021/06/06 08:42:07;;;;;;;20.38;7.68;;;26.90;45.20;;;;;;5065181;28;20029;-80
2021/06/06 08:44:58;;;;;;;13.95;5.03;;;27.00;44.00;;;;;;5070915;28;20029;-77
2021/06/06 08:47:31;;;;;;;11.60;4.65;;;27.20;43.50;;;;;;5060000;28;20021;-76
2021/06/06 08:50:04;;;;;;;11.38;4.60;;;27.40;44.40;;;;;;5070663;28;20054;-77
2021/06/06 08:53:08;;;;;;;11.45;4.57;;;27.50;43.80;;;;;;5065217;28;20036;-79
2021/06/06 08:56:00;;;;;;;10.85;4.93;;;27.70;42.60;;;;;;5037236;28;20069;-75
2021/06/06 08:58:42;;;;;;;9.43;4.30;;;27.70;42.60;;;;;;5055163;28;20053;-75
2021/06/06 09:01:18;;;;;;;9.43;4.75;;;27.70;43.00;;;;;;5055055;28;20029;-74
2021/06/06 09:03:48;;;;;;;11.10;4.95;;;27.70;42.20;;;;;;5055194;28;20028;-76
2021/06/06 09:06:24;;;;;;;9.40;4.72;;;27.70;43.30;;;;;;5025455;28;20062;-77
2021/06/06 09:08:53;;;;;;;10.45;4.15;;;27.60;42.70;;;;;;5074820;28;20494;-75
2021/06/06 09:11:23;;;;;;;13.93;4.50;;;27.50;42.00;;;;;;5068474;28;20021;-75
2021/06/06 09:13:50;;;;;;;8.77;4.40;;;27.50;42.60;;;;;;5071669;28;20032;-76
2021/06/06 09:16:42;;;;;;;9.23;4.40;;;27.50;42.70;;;;;;5057093;28;20074;-78
2021/06/06 09:19:13;;;;;;;12.35;5.07;;;27.40;42.90;;;;;;5056796;28;20120;-77
2021/06/06 09:21:59;;;;;;;14.68;4.70;;;27.30;44.00;;;;;;5074268;28;20515;-75
2021/06/06 09:24:43;;;;;;;7.53;3.70;;;27.20;42.10;;;;;;5056495;28;20082;-75
2021/06/06 09:27:21;;;;;;;9.45;3.70;;;27.20;42.40;;;;;;5062884;28;20020;-79
2021/06/06 09:30:00;;;;;;;7.10;3.65;;;27.20;41.10;;;;;;5043645;28;20045;-73
2021/06/06 09:32:27;;;;;;;8.98;4.25;;;27.10;41.20;;;;;;5056929;28;20025;-77
2021/06/06 09:34:58;;;;;;;10.93;5.57;;;27.10;40.50;;;;;;5054439;28;20070;-75
2021/06/06 09:37:28;;;;;;;11.13;4.38;;;27.10;40.50;;;;;;5054219;28;20079;-73
2021/06/06 09:40:05;;;;;;;7.82;2.92;;;27.10;39.30;;;;;;5061985;28;20445;-74
2021/06/06 09:42:42;;;;;;;7.32;3.40;;;27.20;38.50;;;;;;5038799;28;20035;-72
2021/06/06 09:45:28;;;;;;;9.38;4.03;;;27.30;37.90;;;;;;5047057;28;20028;-75
2021/06/06 09:47:56;;;;;;;8.07;2.97;;;27.50;37.80;;;;;;5073761;28;20033;-77
2021/06/06 09:50:22;;;;;;;8.05;2.85;;;27.50;37.60;;;;;;5074363;28;20032;-79
2021/06/06 09:52:51;;;;;;;9.45;2.83;;;27.70;37.70;;;;;;5069376;28;20036;-74
2021/06/06 09:55:33;;;;;;;6.18;2.72;;;27.80;37.30;;;;;;5054024;28;20025;-78
2021/06/06 09:58:38;;;;;;;7.90;3.10;;;27.90;36.70;;;;;;5035993;28;20063;-72
2021/06/06 10:01:30;;;;;;;6.28;3.03;;;27.90;36.70;;;;;;4973105;28;20031;-76
2021/06/06 10:04:20;;;;;;;7.28;3.30;;;28.00;36.70;;;;;;5053870;28;20063;-78
2021/06/06 10:06:50;;;;;;;7.72;2.88;;;28.00;36.60;;;;;;5034678;28;20528;-78
2021/06/06 10:09:19;;;;;;;10.30;3.30;;;28.00;36.50;;;;;;5035751;28;20091;-78
2021/06/06 10:11:57;;;;;;;5.38;2.80;;;28.10;36.40;;;;;;5054606;28;20075;-74
2021/06/06 10:14:38;;;;;;;9.57;3.05;;;28.00;36.10;;;;;;5053827;28;20032;-73
2021/06/06 10:17:10;;;;;;;6.18;2.90;;;28.10;35.70;;;;;;5055557;28;20432;-79
2021/06/06 10:19:43;;;;;;;7.28;3.40;;;28.20;35.90;;;;;;5073396;28;20021;-75
2021/06/06 10:22:14;;;;;;;;;;;28.20;35.90;;;;;;5073899;28;20380;-75
2021/06/06 10:24:55;;;;;;;9.07;3.70;;;28.30;35.00;;;;;;5062024;28;19969;-79
2021/06/06 10:27:38;;;;;;;6.00;2.92;;;28.30;35.70;;;;;;5053328;28;20029;-74
2021/06/06 10:30:16;;;;;;;5.20;2.70;;;28.40;36.00;;;;;;5053229;28;20041;-78
2021/06/06 10:32:46;;;;;;;10.90;2.83;;;28.40;35.90;;;;;;5053629;28;20028;-81
2021/06/06 10:35:29;;;;;;;6.40;2.92;;;28.40;35.90;;;;;;5052786;28;20136;-82
2021/06/06 10:37:58;;;;;;;4.95;2.60;;;28.50;35.90;;;;;;5053418;28;20017;-70
2021/06/06 10:40:32;;;;;;;7.80;2.83;;;28.60;36.10;;;;;;5035311;28;20025;-72
2021/06/06 10:43:33;;;;;;;9.15;2.85;;;28.60;35.90;;;;;;5035649;28;20032;-79
2021/06/06 10:46:20;;;;;;;7.97;3.33;;;28.60;35.50;;;;;;5056892;28;20032;-78
2021/06/06 10:49:20;;;;;;;9.57;3.00;;;28.50;35.60;;;;;;5053467;28;20470;-77
2021/06/06 10:51:56;;;;;;;8.40;2.97;;;28.60;35.50;;;;;;5052032;28;20029;-75
2021/06/06 10:54:39;;;;;;;5.50;3.20;;;28.50;35.30;;;;;;5035114;28;20021;-79
2021/06/06 10:57:36;;;;;;;7.05;2.92;;;28.50;35.40;;;;;;5034877;28;20211;-72
2021/06/06 11:00:22;;;;;;;5.10;2.90;;;28.60;35.40;;;;;;5036918;28;20033;-73
2021/06/06 11:02:58;;;;;;;6.43;2.90;;;28.70;35.80;;;;;;5053198;28;20037;-76
2021/06/06 11:05:45;;;;;;;9.32;3.00;;;28.80;35.50;;;;;;5052885;28;20017;-75
2021/06/06 11:08:27;;;;;;;7.18;3.00;;;28.90;36.00;;;;;;5033957;28;20033;-73
2021/06/06 11:11:09;;;;;;;6.40;3.08;;;28.80;35.80;;;;;;5035119;28;20121;-76
2021/06/06 11:13:46;;;;;;;4.80;2.67;;;28.80;36.00;;;;;;5059803;28;20039;-71
2021/06/06 11:16:28;;;;;;;7.07;2.90;;;28.70;36.10;;;;;;5061682;28;20044;-75
2021/06/06 11:19:20;;;;;;;7.70;3.42;;;28.70;36.10;;;;;;5060255;28;20017;-78
2021/06/06 11:22:12;;;;;;;7.97;2.85;;;28.70;36.10;;;;;;5047237;28;20120;-76
2021/06/06 11:24:41;;;;;;;7.15;3.20;;;28.70;36.10;;;;;;5053326;28;20045;-75
2021/06/06 11:27:26;;;;;;;9.23;2.95;;;28.60;35.90;;;;;;5052129;28;20079;-73
2021/06/06 11:29:55;;;;;;;7.95;3.10;;;28.70;36.00;;;;;;5052415;28;20099;-76
2021/06/06 11:32:24;;;;;;;9.35;3.60;;;28.70;36.10;;;;;;5052536;28;20463;-74
2021/06/06 11:35:27;;;;;;;9.38;3.15;;;28.90;36.10;;;;;;5052250;28;20103;-74
2021/06/06 11:37:57;;;;;;;9.82;3.38;;;28.90;36.10;;;;;;5052471;28;20051;-74
2021/06/06 11:40:48;;;;;;;6.00;2.85;;;28.90;36.00;;;;;;5064103;28;20028;-74
2021/06/06 11:43:27;;;;;;;8.23;2.65;;;28.90;35.90;;;;;;5066015;28;20417;-76
2021/06/06 11:46:01;;;;;;;8.18;2.90;;;28.90;35.80;;;;;;5072884;28;20041;-75
2021/06/06 11:48:37;;;;;;;11.95;3.58;;;28.90;35.80;;;;;;5068852;28;20051;-71
2021/06/06 11:51:16;;;;;;;8.82;4.32;;;29.00;35.60;;;;;;5050817;28;20032;-73
2021/06/06 11:53:44;;;;;;;7.85;3.30;;;29.10;35.50;;;;;;5051168;28;20393;-77
2021/06/06 11:56:22;;;;;;;7.10;3.42;;;29.30;35.70;;;;;;5048746;28;20029;-76
2021/06/06 11:59:03;;;;;;;6.80;3.25;;;29.20;35.70;;;;;;5034306;28;20059;-73
2021/06/06 12:01:37;;;;;;;8.27;3.47;;;29.20;36.40;;;;;;5053070;28;20040;-86
2021/06/06 12:04:10;;;;;;;6.72;3.10;;;29.20;36.40;;;;;;5071942;28;20044;-79
2021/06/06 12:06:39;;;;;;;6.72;3.60;;;29.20;36.30;;;;;;5031638;28;20021;-78
2021/06/06 12:09:18;;;;;;;6.45;2.80;;;29.20;36.40;;;;;;5046364;28;20037;-79
2021/06/06 12:11:45;;;;;;;6.72;3.13;;;29.30;36.10;;;;;;5058777;28;20041;-80
2021/06/06 12:14:17;;;;;;;11.85;3.47;;;29.40;35.90;;;;;;5055350;28;20079;-79
2021/06/06 12:16:57;;;;;;;8.20;3.20;;;29.40;35.80;;;;;;5035227;28;20021;-82
2021/06/06 12:19:39;;;;;;;6.32;2.70;;;29.50;35.90;;;;;;5035711;28;20021;-80
2021/06/06 12:22:21;;;;;;;8.25;3.30;;;29.60;35.60;;;;;;5034677;28;20071;-81
2021/06/06 12:25:09;;;;;;;4.03;2.50;;;29.70;35.20;;;;;;5036455;28;20121;-81
2021/06/06 12:27:44;;;;;;;15.50;2.67;;;29.80;33.90;;;;;;5035088;28;20033;-75
2021/06/06 12:30:19;;;;;;;4.40;2.67;;;29.70;33.30;;;;;;5037579;28;20045;-74
2021/06/06 12:33:13;;;;;;;7.20;2.28;;;29.90;33.30;;;;;;5045327;28;20139;-75
2021/06/06 12:35:47;;;;;;;5.25;2.25;;;29.90;31.40;;;;;;5037626;28;20029;-67
2021/06/06 12:38:16;;;;;;;5.28;2.47;;;29.90;32.30;;;;;;5043721;28;20155;-78
2021/06/06 12:40:43;;;;;;;6.15;2.90;;;29.80;32.60;;;;;;5047676;28;20087;-76
2021/06/06 12:43:12;;;;;;;6.15;3.33;;;29.70;32.00;;;;;;5046551;28;20025;-79
2021/06/06 12:45:44;;;;;;;5.80;3.38;;;29.50;32.50;;;;;;5048203;28;20029;-81
2021/06/06 12:48:28;;;;;;;9.52;4.50;;;29.40;32.00;;;;;;5044155;28;20071;-75
2021/06/06 12:50:56;;;;;;;9.40;4.75;;;29.30;31.80;;;;;;5043171;28;20025;-71
2021/06/06 12:53:30;;;;;;;7.93;4.70;;;29.20;32.20;;;;;;5034845;28;20025;-70
2021/06/06 12:56:28;;;;;;;8.32;5.10;;;29.10;31.60;;;;;;5041218;28;20485;-75
2021/06/06 12:59:13;;;;;;;7.22;3.92;;;29.20;32.90;;;;;;5036017;28;20426;-74
2021/06/06 13:01:40;;;;;;;8.35;3.60;;;29.20;32.80;;;;;;5037564;28;20492;-76
2021/06/06 13:04:25;;;;;;;7.13;3.60;;;29.20;32.30;;;;;;5044122;28;20073;-76
2021/06/06 13:06:53;;;;;;;7.00;3.53;;;29.20;32.40;;;;;;5040049;28;20025;-76
2021/06/06 13:09:43;;;;;;;7.68;3.55;;;29.20;32.70;;;;;;5036127;28;20041;-75